createdAt,value
2022-09-20T00:01:27.071Z,1.00
2022-09-20T00:03:58.624Z,1.05
2022-09-20T00:06:28.362Z,1.03
2022-09-20T00:08:55.475Z,0.95
2022-09-20T00:11:25.086Z,0.70
2022-09-20T00:13:53.367Z,0.82
2022-09-20T00:16:28.695Z,0.88
2022-09-20T00:18:57.065Z,0.80
2022-09-20T00:21:27.057Z,1.00
2022-09-20T00:23:54.087Z,0.63
2022-09-20T00:26:21.066Z,0.90
2022-09-20T00:28:47.603Z,0.93
2022-09-20T00:31:15.685Z,0.80
2022-09-20T00:34:00.914Z,1.13
2022-09-20T00:36:27.483Z,0.60
2022-09-20T00:39:02.333Z,0.63
2022-09-20T00:41:30.492Z,0.85
2022-09-20T00:43:58.209Z,0.60
2022-09-20T00:46:28.189Z,1.00
2022-09-20T00:49:03.451Z,0.73
2022-09-20T00:51:34.339Z,0.70
2022-09-20T00:54:04.154Z,0.70
2022-09-20T00:56:37.750Z,0.70
2022-09-20T00:59:19.830Z,0.75
2022-09-20T01:01:52.284Z,0.60
2022-09-20T01:04:21.857Z,0.70
2022-09-20T01:06:52.654Z,0.70
2022-09-20T01:09:19.058Z,0.80
2022-09-20T01:11:46.434Z,0.93
2022-09-20T01:14:18.871Z,1.20
2022-09-20T01:16:45.517Z,0.85
2022-09-20T01:19:35.250Z,0.70
2022-09-20T01:22:08.252Z,0.70
2022-09-20T01:25:11.307Z,0.80
2022-09-20T01:27:49.202Z,1.05
2022-09-20T01:30:21.384Z,0.70
2022-09-20T01:32:56.623Z,1.10
2022-09-20T01:35:25.286Z,1.00
2022-09-20T01:38:21.344Z,1.10
2022-09-20T01:41:04.050Z,0.93
2022-09-20T01:43:41.015Z,1.27
2022-09-20T01:46:31.453Z,1.17
2022-09-20T01:49:21.120Z,0.90
2022-09-20T01:52:05.873Z,0.80
2022-09-20T01:54:58.060Z,0.70
2022-09-20T01:57:46.135Z,0.90
2022-09-20T02:00:12.540Z,0.80
2022-09-20T02:03:00.831Z,0.83
2022-09-20T02:05:53.311Z,0.88
2022-09-20T02:08:41.352Z,0.68
2022-09-20T02:11:21.524Z,0.85
2022-09-20T02:13:58.450Z,1.00
2022-09-20T02:17:02.267Z,0.77
2022-09-20T02:20:00.717Z,1.67
2022-09-20T02:22:44.772Z,0.90
2022-09-20T02:25:11.121Z,0.75
2022-09-20T02:27:53.782Z,1.02
2022-09-20T02:30:35.791Z,0.80
2022-09-20T02:33:18.050Z,1.00
2022-09-20T02:36:05.605Z,0.70
2022-09-20T02:38:50.437Z,0.95
2022-09-20T02:41:28.651Z,1.05
2022-09-20T02:44:07.357Z,0.80
2022-09-20T02:46:52.617Z,1.20
2022-09-20T02:49:22.040Z,1.15
2022-09-20T02:52:08.092Z,0.88
2022-09-20T02:55:11.946Z,0.95
2022-09-20T02:57:53.615Z,1.00
2022-09-20T03:00:25.655Z,1.00
2022-09-20T03:03:07.608Z,0.90
2022-09-20T03:05:51.185Z,1.30
2022-09-20T03:08:40.481Z,1.10
2022-09-20T03:11:25.995Z,1.10
2022-09-20T03:14:08.634Z,1.40
2022-09-20T03:16:51.902Z,1.30
2022-09-20T03:19:48.457Z,1.30
2022-09-20T03:22:46.625Z,1.40
2022-09-20T03:25:36.691Z,1.63
2022-09-20T03:28:29.872Z,1.10
2022-09-20T03:30:59.230Z,1.38
2022-09-20T03:33:53.972Z,1.30
2022-09-20T03:36:32.326Z,1.52
2022-09-20T03:39:23.052Z,1.00
2022-09-20T03:42:04.774Z,1.35
2022-09-20T03:44:49.543Z,1.00
2022-09-20T03:47:44.068Z,0.90
2022-09-20T03:50:39.184Z,1.00
2022-09-20T03:53:27.028Z,1.23
2022-09-20T03:56:23.979Z,1.23
2022-09-20T03:59:05.708Z,1.60
2022-09-20T04:01:59.562Z,1.27
2022-09-20T04:04:34.961Z,1.23
2022-09-20T04:07:29.520Z,1.43
2022-09-20T04:10:26.917Z,1.05
2022-09-20T04:13:12.271Z,1.40
2022-09-20T04:15:53.906Z,1.25
2022-09-20T04:18:33.831Z,0.98
2022-09-20T04:21:08.043Z,1.73
2022-09-20T04:23:54.477Z,1.48
2022-09-20T04:26:26.453Z,1.27
2022-09-20T04:29:06.418Z,1.10
2022-09-20T04:31:36.237Z,1.50
2022-09-20T04:34:09.347Z,1.10
2022-09-20T04:36:58.319Z,1.35
2022-09-20T04:39:47.540Z,1.27
2022-09-20T04:42:33.101Z,1.10
2022-09-20T04:45:08.353Z,1.42
2022-09-20T04:48:02.788Z,1.60
2022-09-20T04:51:05.940Z,0.95
2022-09-20T04:54:10.580Z,0.98
2022-09-20T04:57:14.232Z,1.52
2022-09-20T05:00:02.570Z,1.00
2022-09-20T05:02:44.381Z,1.23
2022-09-20T05:05:26.772Z,1.27
2022-09-20T05:08:14.299Z,0.90
2022-09-20T05:11:25.657Z,1.52
2022-09-20T05:14:32.896Z,1.05
2022-09-20T05:17:20.599Z,1.50
2022-09-20T05:20:09.084Z,1.83
2022-09-20T05:22:41.408Z,1.50
2022-09-20T05:25:30.378Z,1.60
2022-09-20T05:28:11.496Z,1.40
2022-09-20T05:30:49.540Z,1.30
2022-09-20T05:33:26.199Z,1.30
2022-09-20T05:36:04.632Z,1.23
2022-09-20T05:38:45.381Z,2.40
2022-09-20T05:41:31.929Z,1.42
2022-09-20T05:44:15.830Z,1.20
2022-09-20T05:46:48.802Z,1.52
2022-09-20T05:49:34.480Z,1.20
2022-09-20T05:52:06.952Z,1.00
2022-09-20T05:54:36.452Z,1.80
2022-09-20T05:57:11.970Z,1.10
2022-09-20T05:59:59.135Z,1.60
2022-09-20T06:02:51.967Z,1.10
2022-09-20T06:05:55.640Z,1.30
2022-09-20T06:08:44.178Z,1.23
2022-09-20T06:11:32.377Z,1.37
2022-09-20T06:14:15.212Z,1.10
2022-09-20T06:17:06.364Z,1.42
2022-09-20T06:19:48.400Z,1.10
2022-09-20T06:22:22.912Z,1.15
2022-09-20T06:25:00.976Z,1.10
2022-09-20T06:27:43.116Z,1.30
2022-09-20T06:30:24.578Z,1.45
2022-09-20T06:33:13.657Z,1.20
2022-09-20T06:35:47.854Z,2.03
2022-09-20T06:39:04.023Z,1.80
2022-09-20T06:41:34.639Z,1.77
2022-09-20T06:44:02.074Z,1.55
2022-09-20T06:46:34.317Z,3.22
2022-09-20T06:49:01.264Z,4.40
2022-09-20T06:51:33.802Z,3.20
2022-09-20T06:54:00.481Z,2.75
2022-09-20T06:56:31.205Z,9.13
2022-09-20T06:58:57.612Z,5.95
2022-09-20T07:01:30.056Z,2.08
2022-09-20T07:03:57.925Z,1.63
2022-09-20T07:06:24.391Z,2.35
2022-09-20T07:08:50.891Z,2.30
2022-09-20T07:11:17.960Z,1.90
2022-09-20T07:13:45.583Z,1.65
2022-09-20T07:16:16.996Z,1.70
2022-09-20T07:18:43.669Z,2.00
2022-09-20T07:21:15.037Z,2.10
2022-09-20T07:23:41.759Z,0.90
2022-09-20T07:26:19.841Z,1.30
2022-09-20T07:28:46.666Z,1.10
2022-09-20T07:31:13.103Z,1.65
2022-09-20T07:33:39.550Z,1.58
2022-09-20T07:36:06.273Z,1.20
2022-09-20T07:38:32.871Z,1.58
2022-09-20T07:41:02.172Z,1.23
2022-09-20T07:43:30.429Z,1.00
2022-09-20T07:45:59.407Z,1.08
2022-09-20T07:48:36.862Z,1.00
2022-09-20T07:51:08.792Z,1.15
2022-09-20T07:53:36.324Z,1.43
2022-09-20T07:56:04.809Z,1.00
2022-09-20T07:58:34.096Z,0.98
2022-09-20T08:01:06.052Z,1.13
2022-09-20T08:03:33.622Z,0.70
2022-09-20T08:06:03.722Z,0.80
2022-09-20T08:08:36.235Z,0.77
2022-09-20T08:11:08.508Z,0.98
2022-09-20T08:16:27.715Z,1.10
2022-09-20T08:18:59.562Z,0.63
2022-09-20T08:21:28.121Z,0.85
2022-09-20T08:23:54.526Z,0.52
2022-09-20T08:26:24.489Z,0.50
2022-09-20T08:28:56.674Z,0.63
2022-09-20T08:31:26.081Z,1.00
2022-09-20T08:33:54.226Z,0.60
2022-09-20T08:36:24.645Z,0.70
2022-09-20T08:42:05.662Z,0.95
2022-09-20T08:44:35.808Z,0.90
2022-09-20T08:47:16.346Z,0.68
2022-09-20T08:49:46.067Z,0.80
2022-09-20T08:52:35.843Z,1.02
2022-09-20T08:55:07.551Z,0.90
2022-09-20T08:57:35.522Z,0.63
2022-09-20T09:00:04.905Z,0.60
2022-09-20T09:02:34.368Z,0.70
2022-09-20T09:05:34.413Z,0.63
2022-09-20T09:08:06.577Z,0.90
2022-09-20T09:10:45.881Z,0.50
2022-09-20T09:13:25.115Z,0.85
2022-09-20T09:15:57.197Z,0.60
2022-09-20T09:18:34.764Z,1.00
2022-09-20T09:21:04.329Z,0.50
2022-09-20T09:23:41.029Z,0.47
2022-09-20T09:26:16.880Z,0.80
2022-09-20T09:28:44.067Z,0.68
2022-09-20T09:31:25.851Z,0.90
2022-09-20T09:33:52.444Z,0.93
2022-09-20T09:36:26.113Z,0.40
2022-09-20T09:39:30.971Z,0.60
2022-09-20T09:42:01.758Z,1.00
2022-09-20T09:44:33.906Z,0.60
2022-09-20T09:47:00.458Z,0.52
2022-09-20T09:49:34.157Z,0.30
2022-09-20T09:52:02.347Z,0.43
2022-09-20T09:54:40.035Z,0.60
2022-09-20T09:57:36.915Z,0.35
2022-09-20T10:00:22.007Z,0.60
2022-09-20T10:03:04.159Z,1.23
2022-09-20T10:06:04.834Z,0.40
2022-09-20T10:08:57.940Z,0.63
2022-09-20T10:12:00.847Z,0.68
2022-09-20T10:15:05.031Z,0.95
2022-09-20T10:18:02.669Z,0.50
2022-09-20T10:20:35.744Z,0.43
2022-09-20T10:26:22.370Z,0.77
2022-09-20T10:28:54.926Z,0.50
2022-09-20T10:31:49.283Z,0.47
2022-09-20T10:34:18.889Z,0.40
2022-09-20T10:36:53.654Z,0.50
2022-09-20T10:39:39.005Z,0.75
2022-09-20T10:42:55.335Z,0.40
2022-09-20T10:46:14.101Z,0.40
2022-09-20T10:48:32.941Z,0.43
2022-09-20T10:51:19.084Z,0.75
2022-09-20T10:53:48.240Z,0.65
2022-09-20T10:56:26.511Z,0.40
2022-09-20T10:59:11.241Z,0.60
2022-09-20T11:01:43.753Z,0.40
2022-09-20T11:04:39.453Z,0.70
2022-09-20T11:07:22.221Z,0.60
2022-09-20T11:09:57.649Z,0.50
2022-09-20T11:12:24.788Z,0.40
2022-09-20T11:14:57.769Z,0.57
2022-09-20T11:17:32.957Z,0.70
2022-09-20T11:20:44.203Z,0.63
2022-09-20T11:23:14.450Z,0.50
2022-09-20T11:25:52.675Z,0.80
2022-09-20T11:28:30.459Z,0.43
2022-09-20T11:31:10.848Z,0.50
2022-09-20T11:34:04.212Z,1.08
2022-09-20T11:36:40.284Z,0.47
2022-09-20T11:39:19.066Z,0.60
2022-09-20T11:41:47.177Z,0.60
2022-09-20T11:44:19.331Z,0.40
2022-09-20T11:46:55.921Z,1.10
2022-09-20T11:49:26.656Z,0.68
2022-09-20T11:52:18.294Z,0.77
2022-09-20T11:55:15.715Z,0.60
2022-09-20T11:57:42.354Z,0.40
2022-09-20T12:00:10.234Z,0.35
2022-09-20T12:02:54.090Z,0.60
2022-09-20T12:05:35.335Z,0.73
2022-09-20T12:08:05.737Z,0.98
2022-09-20T12:10:36.602Z,1.02
2022-09-20T12:13:06.687Z,0.73
2022-09-20T12:15:39.233Z,0.50
2022-09-20T12:18:13.707Z,0.73
2022-09-20T12:20:42.567Z,0.60
2022-09-20T12:23:43.052Z,0.70
2022-09-20T12:26:18.554Z,0.55
2022-09-20T12:28:52.361Z,1.00
2022-09-20T12:31:21.729Z,0.70
2022-09-20T12:34:10.961Z,0.60
2022-09-20T12:36:38.611Z,0.40
2022-09-20T12:39:19.070Z,0.50
2022-09-20T12:41:51.645Z,0.50
2022-09-20T12:44:35.751Z,0.40
2022-09-20T12:47:04.580Z,0.60
2022-09-20T12:49:54.347Z,0.63
2022-09-20T12:52:48.197Z,0.90
2022-09-20T12:55:57.822Z,1.25
2022-09-20T12:58:32.311Z,0.60
2022-09-20T13:01:04.792Z,0.50
2022-09-20T13:03:36.293Z,0.50
2022-09-20T13:06:15.596Z,0.50
2022-09-20T13:09:04.552Z,0.40
2022-09-20T13:11:42.088Z,0.50
2022-09-20T13:14:18.491Z,0.50
2022-09-20T13:16:57.689Z,0.60
2022-09-20T13:19:29.690Z,0.70
2022-09-20T13:22:11.335Z,0.50
2022-09-20T13:24:41.666Z,0.77
2022-09-20T13:27:19.218Z,0.70
2022-09-20T13:29:46.006Z,2.45
2022-09-20T13:32:30.251Z,1.42
2022-09-20T13:35:06.696Z,0.80
2022-09-20T13:37:34.145Z,1.10
2022-09-20T13:40:01.078Z,0.70
2022-09-20T13:42:29.990Z,1.05
2022-09-20T13:44:58.795Z,0.50
2022-09-20T13:47:31.223Z,0.30
2022-09-20T13:50:03.201Z,0.47
2022-09-20T13:52:31.530Z,0.70
2022-09-20T13:54:58.091Z,0.50
2022-09-20T13:57:30.119Z,2.03
2022-09-20T13:59:57.972Z,0.50
2022-09-20T14:02:31.747Z,0.43
2022-09-20T14:05:03.091Z,0.60
2022-09-20T14:07:31.028Z,0.80
2022-09-20T14:09:58.878Z,0.55
2022-09-20T14:12:27.050Z,1.00
2022-09-20T14:14:54.517Z,0.70
2022-09-20T14:17:24.561Z,0.60
2022-09-20T14:19:54.497Z,0.73
2022-09-20T14:22:28.696Z,0.50
2022-09-20T14:25:01.451Z,0.65
2022-09-20T14:27:31.098Z,0.57
2022-09-20T14:29:57.917Z,0.60
2022-09-20T14:32:31.324Z,0.60
2022-09-20T14:35:15.620Z,0.73
2022-09-20T14:37:52.581Z,0.57
2022-09-20T14:40:26.793Z,0.60
2022-09-20T14:43:03.448Z,0.47
2022-09-20T14:45:39.343Z,0.68
2022-09-20T14:48:11.927Z,0.57
2022-09-20T14:50:44.331Z,0.63
2022-09-20T14:53:13.618Z,0.80
2022-09-20T14:55:54.486Z,0.73
2022-09-20T14:58:21.298Z,0.55
2022-09-20T15:00:58.657Z,0.65
2022-09-20T15:03:26.859Z,0.57
2022-09-20T15:05:53.524Z,0.53
2022-09-20T15:08:20.397Z,0.60
2022-09-20T15:10:47.745Z,0.60
2022-09-20T15:13:14.623Z,0.88
2022-09-20T15:15:41.916Z,0.70
2022-09-20T15:18:32.146Z,0.60
2022-09-20T15:20:58.565Z,0.70
2022-09-20T15:23:26.348Z,0.70
2022-09-20T15:25:55.157Z,0.50
2022-09-20T15:28:22.052Z,0.35
2022-09-20T15:30:50.501Z,0.40
2022-09-20T15:33:18.941Z,0.50
2022-09-20T15:35:45.933Z,0.40
2022-09-20T15:38:13.970Z,0.68
2022-09-20T15:40:41.420Z,0.50
2022-09-20T15:43:09.516Z,0.50
2022-09-20T15:45:36.222Z,0.50
2022-09-20T15:48:03.276Z,0.50
2022-09-20T15:50:29.694Z,0.60
2022-09-20T15:52:59.969Z,0.50
2022-09-20T15:55:26.826Z,0.40
2022-09-20T15:57:53.428Z,0.60
2022-09-20T16:00:20.092Z,0.50
2022-09-20T16:02:49.989Z,1.08
2022-09-20T16:05:16.416Z,0.70
2022-09-20T16:07:42.891Z,0.80
2022-09-20T16:10:09.418Z,0.70
2022-09-20T16:12:35.834Z,0.60
2022-09-20T16:15:02.297Z,0.77
2022-09-20T16:17:47.617Z,0.90
2022-09-20T16:20:14.037Z,0.70
2022-09-20T16:22:40.441Z,0.75
2022-09-20T16:25:08.682Z,0.50
2022-09-20T16:27:35.230Z,0.52
2022-09-20T16:30:02.760Z,0.65
2022-09-20T16:32:29.563Z,0.40
2022-09-20T16:34:57.897Z,0.50
2022-09-20T16:37:24.956Z,0.60
2022-09-20T16:39:51.359Z,0.52
2022-09-20T16:42:18.497Z,0.93
2022-09-20T16:44:44.905Z,0.50
2022-09-20T16:47:22.182Z,0.45
2022-09-20T16:49:50.147Z,0.63
2022-09-20T16:52:16.688Z,0.50
2022-09-20T16:54:43.161Z,1.00
2022-09-20T16:57:09.713Z,0.57
2022-09-20T16:59:36.208Z,0.50
2022-09-20T17:02:02.644Z,0.50
2022-09-20T17:04:30.191Z,0.55
2022-09-20T17:06:56.770Z,0.50
2022-09-20T17:09:23.162Z,1.37
2022-09-20T17:11:50.770Z,1.08
2022-09-20T17:14:20.219Z,0.77
2022-09-20T17:16:48.083Z,0.52
2022-09-20T17:19:16.780Z,0.50
2022-09-20T17:21:46.485Z,0.67
2022-09-20T17:24:14.136Z,0.57
2022-09-20T17:26:44.620Z,0.50
2022-09-20T17:29:13.998Z,0.63
2022-09-20T17:31:42.777Z,2.58
2022-09-20T17:34:11.525Z,4.40
2022-09-20T17:36:44.103Z,2.35
2022-09-20T17:39:12.945Z,1.58
2022-09-20T17:41:40.977Z,0.88
2022-09-20T17:44:12.167Z,1.00
2022-09-20T17:46:40.996Z,0.80
2022-09-20T17:49:12.682Z,0.50
2022-09-20T17:51:40.410Z,0.57
2022-09-20T17:54:07.585Z,2.00
2022-09-20T17:56:35.755Z,0.70
2022-09-20T17:59:04.498Z,0.60
2022-09-20T18:01:32.868Z,0.73
2022-09-20T18:04:01.191Z,0.88
2022-09-20T18:06:36.268Z,0.52
2022-09-20T18:09:06.314Z,0.60
2022-09-20T18:11:38.485Z,0.40
2022-09-20T18:14:06.874Z,0.60
2022-09-20T18:16:35.070Z,0.80
2022-09-20T18:19:01.807Z,0.65
2022-09-20T18:21:30.044Z,0.90
2022-09-20T18:23:57.366Z,0.83
2022-09-20T18:26:26.922Z,0.95
2022-09-20T18:28:54.961Z,1.13
2022-09-20T18:31:23.538Z,0.90
2022-09-20T18:33:56.867Z,1.05
2022-09-20T18:36:27.419Z,1.30
2022-09-20T18:38:54.987Z,0.60
2022-09-20T18:41:25.480Z,1.10
2022-09-20T18:43:53.896Z,0.90
2022-09-20T18:46:23.692Z,0.75
2022-09-20T18:49:04.871Z,0.50
2022-09-20T18:51:35.847Z,0.75
2022-09-20T18:54:05.692Z,0.70
2022-09-20T18:56:34.850Z,0.70
2022-09-20T18:59:04.131Z,0.75
2022-09-20T19:01:55.454Z,0.60
2022-09-20T19:04:24.940Z,0.55
2022-09-20T19:06:57.421Z,1.00
2022-09-20T19:10:03.994Z,0.80
2022-09-20T19:12:45.512Z,1.15
2022-09-20T19:15:45.398Z,1.33
2022-09-20T19:18:45.841Z,2.55
2022-09-20T19:21:31.184Z,4.43
2022-09-20T19:24:16.050Z,8.60
2022-09-20T19:26:42.982Z,8.00
2022-09-20T19:29:18.403Z,11.37
2022-09-20T19:31:48.623Z,6.80
2022-09-20T19:34:21.516Z,6.85
2022-09-20T19:37:18.815Z,3.80
2022-09-20T19:40:18.756Z,2.65
2022-09-20T19:43:05.305Z,2.20
2022-09-20T19:45:56.020Z,1.83
2022-09-20T19:48:40.222Z,1.70
2022-09-20T19:51:11.707Z,1.65
2022-09-20T19:53:39.270Z,1.50
2022-09-20T19:56:14.832Z,1.80
2022-09-20T19:58:43.272Z,1.90
2022-09-20T20:01:10.158Z,1.88
2022-09-20T20:03:36.889Z,2.05
2022-09-20T20:06:08.420Z,1.70
2022-09-20T20:08:48.681Z,1.87
2022-09-20T20:11:20.920Z,1.48
2022-09-20T20:14:04.836Z,1.98
2022-09-20T20:16:50.592Z,1.55
2022-09-20T20:19:44.556Z,2.20
2022-09-20T20:22:29.241Z,2.03
2022-09-20T20:24:59.628Z,2.00
2022-09-20T20:27:31.313Z,2.90
2022-09-20T20:29:58.052Z,2.20
2022-09-20T20:32:24.512Z,2.70
2022-09-20T20:34:50.953Z,2.60
2022-09-20T20:37:18.367Z,2.70
2022-09-20T20:39:44.857Z,2.08
2022-09-20T20:42:12.833Z,2.47
2022-09-20T20:44:39.478Z,2.85
2022-09-20T20:47:06.988Z,3.07
2022-09-20T20:49:33.419Z,2.20
2022-09-20T20:52:04.317Z,2.58
2022-09-20T20:54:32.087Z,2.58
2022-09-20T20:56:59.170Z,2.60
2022-09-20T20:59:25.704Z,2.47
2022-09-20T21:01:52.158Z,2.67
2022-09-20T21:04:18.721Z,2.28
2022-09-20T21:06:45.238Z,2.30
2022-09-20T21:09:12.402Z,2.25
2022-09-20T21:11:44.267Z,2.30
2022-09-20T21:14:12.566Z,2.30
2022-09-20T21:16:43.036Z,2.60
2022-09-20T21:19:13.050Z,2.50
2022-09-20T21:21:42.660Z,2.45
2022-09-20T21:24:11.164Z,2.50
2022-09-20T21:26:38.581Z,2.65
2022-09-20T21:29:16.067Z,2.53
2022-09-20T21:31:44.847Z,3.00
2022-09-20T21:34:13.331Z,2.38
2022-09-20T21:36:41.555Z,2.20
2022-09-20T21:39:08.343Z,2.47
2022-09-20T21:41:37.109Z,2.47
2022-09-20T21:44:05.365Z,2.58
2022-09-20T21:46:37.972Z,3.00
2022-09-20T21:49:05.757Z,2.30
2022-09-20T21:51:33.119Z,2.45
2022-09-20T21:54:01.437Z,2.67
2022-09-20T21:56:33.357Z,2.00
2022-09-20T21:59:02.098Z,2.40
2022-09-20T22:01:32.430Z,2.43
2022-09-20T22:04:00.783Z,2.35
2022-09-20T22:06:33.043Z,2.33
2022-09-20T22:09:03.553Z,2.50
2022-09-20T22:11:41.954Z,2.55
2022-09-20T22:14:09.853Z,2.30
2022-09-20T22:16:38.932Z,2.17
2022-09-20T22:19:07.783Z,2.00
2022-09-20T22:21:39.846Z,1.92
2022-09-20T22:24:08.569Z,1.90
2022-09-20T22:26:40.317Z,2.00
2022-09-20T22:29:07.676Z,1.88
2022-09-20T22:31:36.902Z,2.30
2022-09-20T22:34:05.991Z,1.88
2022-09-20T22:36:37.801Z,2.22
2022-09-20T22:39:07.409Z,2.47
2022-09-20T22:41:35.260Z,1.90
2022-09-20T22:44:02.252Z,2.35
2022-09-20T22:46:30.343Z,2.25
2022-09-20T22:48:57.106Z,2.08
2022-09-20T22:51:29.178Z,2.17
2022-09-20T22:53:55.706Z,1.83
2022-09-20T22:56:30.308Z,1.90
2022-09-20T22:59:03.701Z,2.10
2022-09-20T23:01:35.837Z,2.13
2022-09-20T23:04:07.333Z,1.80
2022-09-20T23:06:37.156Z,2.10
2022-09-20T23:09:06.096Z,2.42
2022-09-20T23:11:32.662Z,1.83
2022-09-20T23:14:01.420Z,2.35
2022-09-20T23:16:30.361Z,2.13
2022-09-20T23:18:58.773Z,2.10
2022-09-20T23:21:26.231Z,2.30
2022-09-20T23:23:54.479Z,2.10
2022-09-20T23:26:21.375Z,1.70
2022-09-20T23:28:55.849Z,2.33
2022-09-20T23:31:23.104Z,2.20
2022-09-20T23:33:51.579Z,2.20
2022-09-20T23:36:19.185Z,2.30
2022-09-20T23:38:46.752Z,2.30
2022-09-20T23:41:16.283Z,2.20
2022-09-20T23:43:43.527Z,2.40
2022-09-20T23:46:11.893Z,2.40
2022-09-20T23:48:41.438Z,2.22
2022-09-20T23:51:09.841Z,2.20
2022-09-20T23:53:36.872Z,2.30
2022-09-20T23:56:05.537Z,2.47
2022-09-20T23:58:32.817Z,2.03
